sensor_id;sensor_type;location;lat;lon;timestamp;pressure;altitude;pressure_sealevel;temperature;humidity
58967;BME280;44744;51.894;5.080;2022-08-01T00:00:19;101764.55;;;18.85;78.24
58967;BME280;44744;51.894;5.080;2022-08-01T00:01:19;101764.21;;;18.87;78.22
58967;BME280;44744;51.894;5.080;2022-08-01T00:02:19;101762.58;;;18.88;78.25
58967;BME280;44744;51.894;5.080;2022-08-01T00:03:20;101764.16;;;18.88;78.31
58967;BME280;44744;51.894;5.080;2022-08-01T00:04:20;101764.17;;;18.88;78.24
58967;BME280;44744;51.894;5.080;2022-08-01T00:05:20;101760.98;;;18.87;78.19
58967;BME280;44744;51.894;5.080;2022-08-01T00:06:21;101762.45;;;18.87;78.30
58967;BME280;44744;51.894;5.080;2022-08-01T00:07:21;101766.33;;;18.85;78.28
58967;BME280;44744;51.894;5.080;2022-08-01T00:08:21;101765.45;;;18.85;78.25
58967;BME280;44744;51.894;5.080;2022-08-01T00:09:22;101762.64;;;18.84;78.29
58967;BME280;44744;51.894;5.080;2022-08-01T00:10:22;101764.70;;;18.85;78.30
58967;BME280;44744;51.894;5.080;2022-08-01T00:11:22;101770.63;;;18.85;78.12
58967;BME280;44744;51.894;5.080;2022-08-01T00:12:23;101767.02;;;18.86;78.33
58967;BME280;44744;51.894;5.080;2022-08-01T00:13:23;101769.02;;;18.85;78.15
58967;BME280;44744;51.894;5.080;2022-08-01T00:14:23;101772.98;;;18.85;78.25
58967;BME280;44744;51.894;5.080;2022-08-01T00:15:24;101769.99;;;18.84;78.23
58967;BME280;44744;51.894;5.080;2022-08-01T00:16:24;101772.47;;;18.85;78.12
58967;BME280;44744;51.894;5.080;2022-08-01T00:17:24;101771.17;;;18.85;78.18
58967;BME280;44744;51.894;5.080;2022-08-01T00:18:25;101770.34;;;18.84;78.08
58967;BME280;44744;51.894;5.080;2022-08-01T00:19:25;101769.61;;;18.85;78.03
58967;BME280;44744;51.894;5.080;2022-08-01T00:20:25;101769.08;;;18.84;78.01
58967;BME280;44744;51.894;5.080;2022-08-01T00:21:25;101769.38;;;18.85;78.10
58967;BME280;44744;51.894;5.080;2022-08-01T00:22:26;101770.20;;;18.86;77.95
58967;BME280;44744;51.894;5.080;2022-08-01T00:23:26;101770.92;;;18.86;77.89
58967;BME280;44744;51.894;5.080;2022-08-01T00:24:26;101771.27;;;18.86;77.99
58967;BME280;44744;51.894;5.080;2022-08-01T00:25:27;101773.94;;;18.86;77.82
58967;BME280;44744;51.894;5.080;2022-08-01T00:26:27;101775.19;;;18.87;77.77
58967;BME280;44744;51.894;5.080;2022-08-01T00:27:27;101779.20;;;18.88;77.82
58967;BME280;44744;51.894;5.080;2022-08-01T00:28:28;101780.00;;;18.90;77.59
58967;BME280;44744;51.894;5.080;2022-08-01T00:29:28;101782.27;;;18.90;77.75
58967;BME280;44744;51.894;5.080;2022-08-01T00:30:28;101780.10;;;18.91;77.55
58967;BME280;44744;51.894;5.080;2022-08-01T00:31:29;101779.66;;;18.91;77.68
58967;BME280;44744;51.894;5.080;2022-08-01T00:32:32;101782.03;;;18.91;77.64
58967;BME280;44744;51.894;5.080;2022-08-01T00:33:32;101781.35;;;18.91;77.53
58967;BME280;44744;51.894;5.080;2022-08-01T00:34:33;101783.23;;;18.90;77.52
58967;BME280;44744;51.894;5.080;2022-08-01T00:35:34;101784.00;;;18.89;77.42
58967;BME280;44744;51.894;5.080;2022-08-01T00:36:34;101779.45;;;18.87;77.29
58967;BME280;44744;51.894;5.080;2022-08-01T00:37:34;101780.40;;;18.86;77.53
58967;BME280;44744;51.894;5.080;2022-08-01T00:38:35;101778.15;;;18.85;77.36
58967;BME280;44744;51.894;5.080;2022-08-01T00:39:35;101779.96;;;18.85;77.38
58967;BME280;44744;51.894;5.080;2022-08-01T00:40:35;101781.30;;;18.84;77.42
58967;BME280;44744;51.894;5.080;2022-08-01T00:41:36;101779.91;;;18.83;77.44
58967;BME280;44744;51.894;5.080;2022-08-01T00:42:36;101778.06;;;18.82;77.47
58967;BME280;44744;51.894;5.080;2022-08-01T00:43:37;101778.52;;;18.81;77.44
58967;BME280;44744;51.894;5.080;2022-08-01T00:44:38;101776.92;;;18.80;77.44
58967;BME280;44744;51.894;5.080;2022-08-01T00:45:38;101776.98;;;18.79;77.50
58967;BME280;44744;51.894;5.080;2022-08-01T00:46:39;101777.38;;;18.79;77.42
58967;BME280;44744;51.894;5.080;2022-08-01T00:47:39;101777.06;;;18.79;77.41
58967;BME280;44744;51.894;5.080;2022-08-01T00:48:39;101780.65;;;18.78;77.39
58967;BME280;44744;51.894;5.080;2022-08-01T00:49:40;101776.17;;;18.78;77.36
58967;BME280;44744;51.894;5.080;2022-08-01T00:50:41;101778.55;;;18.78;77.39
58967;BME280;44744;51.894;5.080;2022-08-01T00:51:41;101779.97;;;18.78;77.48
58967;BME280;44744;51.894;5.080;2022-08-01T00:52:43;101776.77;;;18.78;77.36
58967;BME280;44744;51.894;5.080;2022-08-01T00:53:43;101781.16;;;18.79;77.38
58967;BME280;44744;51.894;5.080;2022-08-01T00:54:45;101784.16;;;18.79;77.33
58967;BME280;44744;51.894;5.080;2022-08-01T00:55:46;101782.59;;;18.79;77.41
58967;BME280;44744;51.894;5.080;2022-08-01T00:56:47;101783.33;;;18.78;77.43
58967;BME280;44744;51.894;5.080;2022-08-01T00:57:48;101780.81;;;18.78;77.51
58967;BME280;44744;51.894;5.080;2022-08-01T00:58:49;101781.48;;;18.79;77.42
58967;BME280;44744;51.894;5.080;2022-08-01T00:59:49;101782.00;;;18.80;77.40
58967;BME280;44744;51.894;5.080;2022-08-01T01:00:49;101780.95;;;18.79;77.49
58967;BME280;44744;51.894;5.080;2022-08-01T01:01:50;101778.06;;;18.79;77.47
58967;BME280;44744;51.894;5.080;2022-08-01T01:02:50;101776.20;;;18.80;77.32
58967;BME280;44744;51.894;5.080;2022-08-01T01:03:51;101776.14;;;18.81;77.41
58967;BME280;44744;51.894;5.080;2022-08-01T01:04:52;101774.15;;;18.81;77.51
58967;BME280;44744;51.894;5.080;2022-08-01T01:06:11;101771.62;;;18.82;77.51
58967;BME280;44744;51.894;5.080;2022-08-01T01:07:24;101772.12;;;18.82;77.34
58967;BME280;44744;51.894;5.080;2022-08-01T01:08:34;101770.60;;;18.81;77.50
58967;BME280;44744;51.894;5.080;2022-08-01T01:09:52;101772.41;;;18.80;77.31
58967;BME280;44744;51.894;5.080;2022-08-01T01:11:00;101769.77;;;18.80;77.32
58967;BME280;44744;51.894;5.080;2022-08-01T01:12:26;101766.36;;;18.80;77.49
58967;BME280;44744;51.894;5.080;2022-08-01T01:13:36;101766.11;;;18.79;77.49
58967;BME280;44744;51.894;5.080;2022-08-01T01:16:14;101764.48;;;18.76;77.53
58967;BME280;44744;51.894;5.080;2022-08-01T01:17:17;101764.68;;;18.76;77.57
58967;BME280;44744;51.894;5.080;2022-08-01T01:18:38;101763.27;;;18.75;77.55
58967;BME280;44744;51.894;5.080;2022-08-01T01:19:45;101763.31;;;18.75;77.63
58967;BME280;44744;51.894;5.080;2022-08-01T01:21:07;101764.09;;;18.74;77.66
58967;BME280;44744;51.894;5.080;2022-08-01T01:22:22;101767.79;;;18.73;77.61
58967;BME280;44744;51.894;5.080;2022-08-01T01:24:57;101766.83;;;18.71;77.64
58967;BME280;44744;51.894;5.080;2022-08-01T01:27:45;101763.08;;;18.69;77.65
58967;BME280;44744;51.894;5.080;2022-08-01T01:30:05;101761.02;;;18.70;77.61
58967;BME280;44744;51.894;5.080;2022-08-01T01:31:06;101758.81;;;18.70;77.73
58967;BME280;44744;51.894;5.080;2022-08-01T01:32:18;101760.84;;;18.72;77.79
58967;BME280;44744;51.894;5.080;2022-08-01T01:33:21;101761.48;;;18.73;77.85
58967;BME280;44744;51.894;5.080;2022-08-01T01:34:23;101756.78;;;18.74;77.73
58967;BME280;44744;51.894;5.080;2022-08-01T01:35:27;101763.12;;;18.75;77.67
58967;BME280;44744;51.894;5.080;2022-08-01T01:36:29;101759.16;;;18.75;77.57
58967;BME280;44744;51.894;5.080;2022-08-01T01:37:32;101759.64;;;18.76;77.60
58967;BME280;44744;51.894;5.080;2022-08-01T01:38:39;101759.45;;;18.76;77.46
58967;BME280;44744;51.894;5.080;2022-08-01T01:39:41;101760.47;;;18.78;77.66
58967;BME280;44744;51.894;5.080;2022-08-01T01:40:42;101757.99;;;18.77;77.67
58967;BME280;44744;51.894;5.080;2022-08-01T01:41:45;101761.05;;;18.74;77.59
58967;BME280;44744;51.894;5.080;2022-08-01T01:42:47;101764.12;;;18.74;77.73
58967;BME280;44744;51.894;5.080;2022-08-01T01:43:50;101761.61;;;18.74;77.62
58967;BME280;44744;51.894;5.080;2022-08-01T01:44:50;101762.06;;;18.75;77.65
58967;BME280;44744;51.894;5.080;2022-08-01T01:45:51;101763.09;;;18.73;77.68
58967;BME280;44744;51.894;5.080;2022-08-01T01:46:53;101761.38;;;18.72;77.71
58967;BME280;44744;51.894;5.080;2022-08-01T01:47:54;101761.38;;;18.72;77.67
58967;BME280;44744;51.894;5.080;2022-08-01T01:48:57;101760.65;;;18.72;77.67
58967;BME280;44744;51.894;5.080;2022-08-01T01:49:59;101761.86;;;18.73;77.64
58967;BME280;44744;51.894;5.080;2022-08-01T01:51:01;101762.23;;;18.73;77.73
58967;BME280;44744;51.894;5.080;2022-08-01T01:52:03;101766.48;;;18.73;77.68
58967;BME280;44744;51.894;5.080;2022-08-01T01:53:05;101764.71;;;18.73;77.58
58967;BME280;44744;51.894;5.080;2022-08-01T01:54:08;101767.88;;;18.74;77.58
58967;BME280;44744;51.894;5.080;2022-08-01T01:55:10;101769.52;;;18.74;77.55
58967;BME280;44744;51.894;5.080;2022-08-01T01:56:14;101770.80;;;18.73;77.59
58967;BME280;44744;51.894;5.080;2022-08-01T01:57:17;101772.96;;;18.73;77.70
58967;BME280;44744;51.894;5.080;2022-08-01T01:58:19;101773.17;;;18.73;77.74
58967;BME280;44744;51.894;5.080;2022-08-01T01:59:24;101769.02;;;18.73;77.82
58967;BME280;44744;51.894;5.080;2022-08-01T02:00:26;101768.23;;;18.72;77.74
58967;BME280;44744;51.894;5.080;2022-08-01T02:01:32;101769.18;;;18.71;77.75
58967;BME280;44744;51.894;5.080;2022-08-01T02:02:34;101768.30;;;18.71;77.73
58967;BME280;44744;51.894;5.080;2022-08-01T02:03:36;101769.70;;;18.71;77.69
58967;BME280;44744;51.894;5.080;2022-08-01T02:04:40;101768.27;;;18.71;77.72
58967;BME280;44744;51.894;5.080;2022-08-01T02:05:42;101765.45;;;18.71;77.68
58967;BME280;44744;51.894;5.080;2022-08-01T02:06:46;101764.78;;;18.70;77.84
58967;BME280;44744;51.894;5.080;2022-08-01T02:07:47;101765.02;;;18.69;77.72
58967;BME280;44744;51.894;5.080;2022-08-01T02:08:48;101765.39;;;18.69;77.87
58967;BME280;44744;51.894;5.080;2022-08-01T02:09:51;101764.69;;;18.66;77.85
58967;BME280;44744;51.894;5.080;2022-08-01T02:10:53;101764.56;;;18.66;77.72
58967;BME280;44744;51.894;5.080;2022-08-01T02:11:55;101765.95;;;18.66;77.91
58967;BME280;44744;51.894;5.080;2022-08-01T02:12:57;101765.08;;;18.66;77.83
58967;BME280;44744;51.894;5.080;2022-08-01T02:14:01;101766.55;;;18.63;77.84
58967;BME280;44744;51.894;5.080;2022-08-01T02:15:03;101762.31;;;18.62;77.92
58967;BME280;44744;51.894;5.080;2022-08-01T02:16:05;101764.27;;;18.62;78.00
58967;BME280;44744;51.894;5.080;2022-08-01T02:17:06;101765.20;;;18.62;77.92
58967;BME280;44744;51.894;5.080;2022-08-01T02:18:07;101766.84;;;18.62;77.92
58967;BME280;44744;51.894;5.080;2022-08-01T02:19:11;101767.40;;;18.61;77.88
58967;BME280;44744;51.894;5.080;2022-08-01T02:20:13;101765.59;;;18.61;77.91
58967;BME280;44744;51.894;5.080;2022-08-01T02:21:17;101765.20;;;18.62;77.83
58967;BME280;44744;51.894;5.080;2022-08-01T02:22:40;101766.52;;;18.64;77.91
58967;BME280;44744;51.894;5.080;2022-08-01T02:23:41;101766.14;;;18.64;78.06
58967;BME280;44744;51.894;5.080;2022-08-01T02:26:14;101763.48;;;18.61;78.06
58967;BME280;44744;51.894;5.080;2022-08-01T02:27:21;101762.43;;;18.60;78.02
58967;BME280;44744;51.894;5.080;2022-08-01T02:28:33;101764.17;;;18.59;78.13
58967;BME280;44744;51.894;5.080;2022-08-01T02:29:49;101764.75;;;18.58;77.99
58967;BME280;44744;51.894;5.080;2022-08-01T02:30:50;101769.59;;;18.58;78.02
58967;BME280;44744;51.894;5.080;2022-08-01T02:31:53;101767.93;;;18.59;78.12
58967;BME280;44744;51.894;5.080;2022-08-01T02:32:59;101767.52;;;18.59;78.05
58967;BME280;44744;51.894;5.080;2022-08-01T02:34:04;101770.27;;;18.61;77.90
58967;BME280;44744;51.894;5.080;2022-08-01T02:35:19;101767.39;;;18.61;78.00
58967;BME280;44744;51.894;5.080;2022-08-01T02:36:20;101771.99;;;18.62;78.00
58967;BME280;44744;51.894;5.080;2022-08-01T02:37:21;101771.44;;;18.63;78.00
58967;BME280;44744;51.894;5.080;2022-08-01T02:38:26;101767.65;;;18.63;77.96
58967;BME280;44744;51.894;5.080;2022-08-01T02:39:28;101771.77;;;18.63;77.97
58967;BME280;44744;51.894;5.080;2022-08-01T02:40:32;101770.69;;;18.62;77.90
58967;BME280;44744;51.894;5.080;2022-08-01T02:41:38;101768.59;;;18.62;77.96
58967;BME280;44744;51.894;5.080;2022-08-01T02:42:43;101774.63;;;18.60;77.89
58967;BME280;44744;51.894;5.080;2022-08-01T02:43:47;101772.73;;;18.59;77.90
58967;BME280;44744;51.894;5.080;2022-08-01T02:44:49;101772.38;;;18.59;78.08
58967;BME280;44744;51.894;5.080;2022-08-01T02:45:53;101772.02;;;18.59;78.01
58967;BME280;44744;51.894;5.080;2022-08-01T02:47:00;101773.23;;;18.60;77.94
58967;BME280;44744;51.894;5.080;2022-08-01T02:48:10;101773.06;;;18.59;77.90
58967;BME280;44744;51.894;5.080;2022-08-01T02:49:12;101773.27;;;18.59;77.97
58967;BME280;44744;51.894;5.080;2022-08-01T02:50:14;101774.70;;;18.59;78.01
58967;BME280;44744;51.894;5.080;2022-08-01T02:51:18;101771.41;;;18.60;78.02
58967;BME280;44744;51.894;5.080;2022-08-01T02:52:21;101776.73;;;18.61;77.85
58967;BME280;44744;51.894;5.080;2022-08-01T02:53:24;101773.47;;;18.62;78.03
58967;BME280;44744;51.894;5.080;2022-08-01T02:54:26;101776.88;;;18.61;78.03
58967;BME280;44744;51.894;5.080;2022-08-01T02:55:28;101774.55;;;18.61;78.06
58967;BME280;44744;51.894;5.080;2022-08-01T02:56:31;101775.46;;;18.61;77.96
58967;BME280;44744;51.894;5.080;2022-08-01T02:57:33;101776.27;;;18.62;78.10
58967;BME280;44744;51.894;5.080;2022-08-01T02:58:35;101773.68;;;18.61;78.06
58967;BME280;44744;51.894;5.080;2022-08-01T02:59:38;101774.56;;;18.61;78.18
58967;BME280;44744;51.894;5.080;2022-08-01T03:00:39;101777.48;;;18.60;78.13
58967;BME280;44744;51.894;5.080;2022-08-01T03:01:42;101776.93;;;18.61;78.20
58967;BME280;44744;51.894;5.080;2022-08-01T03:02:46;101780.69;;;18.60;78.14
58967;BME280;44744;51.894;5.080;2022-08-01T03:03:48;101778.66;;;18.62;78.08
58967;BME280;44744;51.894;5.080;2022-08-01T03:04:48;101773.42;;;18.62;78.21
58967;BME280;44744;51.894;5.080;2022-08-01T03:05:52;101777.86;;;18.63;78.16
58967;BME280;44744;51.894;5.080;2022-08-01T03:06:54;101776.92;;;18.63;78.21
58967;BME280;44744;51.894;5.080;2022-08-01T03:07:55;101775.34;;;18.63;78.19
58967;BME280;44744;51.894;5.080;2022-08-01T03:08:56;101772.84;;;18.60;78.27
58967;BME280;44744;51.894;5.080;2022-08-01T03:09:57;101772.18;;;18.59;78.47
58967;BME280;44744;51.894;5.080;2022-08-01T03:10:59;101772.96;;;18.59;78.46
58967;BME280;44744;51.894;5.080;2022-08-01T03:12:04;101777.15;;;18.57;78.54
58967;BME280;44744;51.894;5.080;2022-08-01T03:13:07;101780.52;;;18.56;78.68
58967;BME280;44744;51.894;5.080;2022-08-01T03:14:10;101782.20;;;18.55;78.72
58967;BME280;44744;51.894;5.080;2022-08-01T03:15:12;101782.48;;;18.54;78.86
58967;BME280;44744;51.894;5.080;2022-08-01T03:16:13;101782.96;;;18.52;79.13
58967;BME280;44744;51.894;5.080;2022-08-01T03:17:17;101780.45;;;18.47;78.91
58967;BME280;44744;51.894;5.080;2022-08-01T03:18:18;101783.06;;;18.46;78.89
58967;BME280;44744;51.894;5.080;2022-08-01T03:19:20;101782.65;;;18.46;79.06
58967;BME280;44744;51.894;5.080;2022-08-01T03:20:23;101784.43;;;18.47;79.06
58967;BME280;44744;51.894;5.080;2022-08-01T03:21:25;101780.20;;;18.45;79.10
58967;BME280;44744;51.894;5.080;2022-08-01T03:22:27;101784.43;;;18.44;79.19
58967;BME280;44744;51.894;5.080;2022-08-01T03:23:29;101784.33;;;18.43;79.24
58967;BME280;44744;51.894;5.080;2022-08-01T03:24:30;101787.23;;;18.42;79.18
58967;BME280;44744;51.894;5.080;2022-08-01T03:25:33;101791.05;;;18.41;79.31
58967;BME280;44744;51.894;5.080;2022-08-01T03:26:36;101792.95;;;18.40;79.42
58967;BME280;44744;51.894;5.080;2022-08-01T03:27:39;101794.39;;;18.40;79.56
58967;BME280;44744;51.894;5.080;2022-08-01T03:28:44;101793.92;;;18.39;79.46
58967;BME280;44744;51.894;5.080;2022-08-01T03:29:46;101792.77;;;18.38;79.50
58967;BME280;44744;51.894;5.080;2022-08-01T03:30:47;101793.00;;;18.37;79.44
58967;BME280;44744;51.894;5.080;2022-08-01T03:31:48;101790.16;;;18.36;79.49
58967;BME280;44744;51.894;5.080;2022-08-01T03:32:49;101795.13;;;18.37;79.47
58967;BME280;44744;51.894;5.080;2022-08-01T03:33:52;101791.52;;;18.37;79.49
58967;BME280;44744;51.894;5.080;2022-08-01T03:34:52;101788.52;;;18.37;79.33
58967;BME280;44744;51.894;5.080;2022-08-01T03:35:54;101790.23;;;18.38;79.48
58967;BME280;44744;51.894;5.080;2022-08-01T03:37:09;101791.36;;;18.39;79.45
58967;BME280;44744;51.894;5.080;2022-08-01T03:38:12;101789.45;;;18.39;79.49
58967;BME280;44744;51.894;5.080;2022-08-01T03:39:18;101790.03;;;18.38;79.38
58967;BME280;44744;51.894;5.080;2022-08-01T03:40:26;101791.27;;;18.38;79.39
58967;BME280;44744;51.894;5.080;2022-08-01T03:41:32;101790.20;;;18.38;79.43
58967;BME280;44744;51.894;5.080;2022-08-01T03:42:41;101791.87;;;18.38;79.38
58967;BME280;44744;51.894;5.080;2022-08-01T03:43:48;101791.05;;;18.37;79.41
58967;BME280;44744;51.894;5.080;2022-08-01T03:44:58;101786.02;;;18.37;79.45
58967;BME280;44744;51.894;5.080;2022-08-01T03:46:05;101788.02;;;18.37;79.42
58967;BME280;44744;51.894;5.080;2022-08-01T03:47:08;101785.43;;;18.35;79.41
58967;BME280;44744;51.894;5.080;2022-08-01T03:48:13;101786.50;;;18.35;79.62
58967;BME280;44744;51.894;5.080;2022-08-01T03:49:27;101786.55;;;18.34;79.66
58967;BME280;44744;51.894;5.080;2022-08-01T03:50:30;101785.16;;;18.34;79.46
58967;BME280;44744;51.894;5.080;2022-08-01T03:51:33;101782.12;;;18.34;79.54
58967;BME280;44744;51.894;5.080;2022-08-01T03:52:34;101777.29;;;18.34;79.56
58967;BME280;44744;51.894;5.080;2022-08-01T03:53:38;101777.85;;;18.34;79.51
58967;BME280;44744;51.894;5.080;2022-08-01T03:54:45;101778.19;;;18.34;79.67
58967;BME280;44744;51.894;5.080;2022-08-01T03:55:46;101777.41;;;18.35;79.45
58967;BME280;44744;51.894;5.080;2022-08-01T03:56:48;101777.23;;;18.34;79.52
58967;BME280;44744;51.894;5.080;2022-08-01T03:57:50;101775.77;;;18.35;79.51
58967;BME280;44744;51.894;5.080;2022-08-01T03:58:51;101779.77;;;18.34;79.51
58967;BME280;44744;51.894;5.080;2022-08-01T03:59:51;101780.87;;;18.34;79.51
58967;BME280;44744;51.894;5.080;2022-08-01T04:00:53;101784.16;;;18.35;79.44
58967;BME280;44744;51.894;5.080;2022-08-01T04:01:55;101784.34;;;18.35;79.53
58967;BME280;44744;51.894;5.080;2022-08-01T04:02:56;101788.13;;;18.35;79.57
58967;BME280;44744;51.894;5.080;2022-08-01T04:03:58;101789.31;;;18.36;79.58
58967;BME280;44744;51.894;5.080;2022-08-01T04:04:59;101792.28;;;18.37;79.57
58967;BME280;44744;51.894;5.080;2022-08-01T04:05:59;101790.36;;;18.39;79.60
58967;BME280;44744;51.894;5.080;2022-08-01T04:07:00;101792.33;;;18.39;79.55
58967;BME280;44744;51.894;5.080;2022-08-01T04:08:01;101791.96;;;18.39;79.54
58967;BME280;44744;51.894;5.080;2022-08-01T04:09:01;101791.64;;;18.38;79.49
58967;BME280;44744;51.894;5.080;2022-08-01T04:10:03;101790.80;;;18.38;79.42
58967;BME280;44744;51.894;5.080;2022-08-01T04:11:04;101793.26;;;18.38;79.52
58967;BME280;44744;51.894;5.080;2022-08-01T04:12:04;101789.72;;;18.38;79.59
58967;BME280;44744;51.894;5.080;2022-08-01T04:13:05;101790.80;;;18.38;79.50
58967;BME280;44744;51.894;5.080;2022-08-01T04:14:05;101789.72;;;18.37;79.52
58967;BME280;44744;51.894;5.080;2022-08-01T04:15:06;101790.09;;;18.37;79.46
58967;BME280;44744;51.894;5.080;2022-08-01T04:16:06;101793.28;;;18.38;79.52
58967;BME280;44744;51.894;5.080;2022-08-01T04:17:06;101792.42;;;18.37;79.50
58967;BME280;44744;51.894;5.080;2022-08-01T04:18:07;101797.06;;;18.38;79.42
58967;BME280;44744;51.894;5.080;2022-08-01T04:19:07;101794.98;;;18.37;79.46
58967;BME280;44744;51.894;5.080;2022-08-01T04:20:08;101801.05;;;18.37;79.41
58967;BME280;44744;51.894;5.080;2022-08-01T04:21:08;101801.26;;;18.36;79.57
58967;BME280;44744;51.894;5.080;2022-08-01T04:22:10;101801.05;;;18.35;79.37
58967;BME280;44744;51.894;5.080;2022-08-01T04:23:13;101801.26;;;18.34;79.50
58967;BME280;44744;51.894;5.080;2022-08-01T04:24:17;101803.16;;;18.33;79.40
58967;BME280;44744;51.894;5.080;2022-08-01T04:25:23;101801.41;;;18.32;79.44
58967;BME280;44744;51.894;5.080;2022-08-01T04:26:25;101800.92;;;18.31;79.38
58967;BME280;44744;51.894;5.080;2022-08-01T04:27:29;101801.88;;;18.31;79.35
58967;BME280;44744;51.894;5.080;2022-08-01T04:28:34;101801.60;;;18.30;79.43
58967;BME280;44744;51.894;5.080;2022-08-01T04:29:36;101805.02;;;18.29;79.41
58967;BME280;44744;51.894;5.080;2022-08-01T04:30:38;101804.38;;;18.28;79.47
58967;BME280;44744;51.894;5.080;2022-08-01T04:31:42;101805.30;;;18.28;79.46
58967;BME280;44744;51.894;5.080;2022-08-01T04:32:44;101805.79;;;18.28;79.48
58967;BME280;44744;51.894;5.080;2022-08-01T04:33:49;101806.30;;;18.29;79.43
58967;BME280;44744;51.894;5.080;2022-08-01T04:34:53;101806.45;;;18.29;79.44
58967;BME280;44744;51.894;5.080;2022-08-01T04:35:58;101804.75;;;18.30;79.41
58967;BME280;44744;51.894;5.080;2022-08-01T04:36:59;101803.13;;;18.31;79.50
58967;BME280;44744;51.894;5.080;2022-08-01T04:38:01;101804.70;;;18.31;79.45
58967;BME280;44744;51.894;5.080;2022-08-01T04:39:04;101803.77;;;18.32;79.29
58967;BME280;44744;51.894;5.080;2022-08-01T04:40:06;101802.02;;;18.31;79.32
58967;BME280;44744;51.894;5.080;2022-08-01T04:41:11;101805.98;;;18.31;79.37
58967;BME280;44744;51.894;5.080;2022-08-01T04:42:15;101804.86;;;18.31;79.38
58967;BME280;44744;51.894;5.080;2022-08-01T04:43:16;101803.83;;;18.33;79.46
58967;BME280;44744;51.894;5.080;2022-08-01T04:44:16;101803.21;;;18.34;79.31
58967;BME280;44744;51.894;5.080;2022-08-01T04:45:17;101806.10;;;18.34;79.29
58967;BME280;44744;51.894;5.080;2022-08-01T04:46:18;101806.55;;;18.35;79.33
58967;BME280;44744;51.894;5.080;2022-08-01T04:47:19;101805.26;;;18.36;79.27
58967;BME280;44744;51.894;5.080;2022-08-01T04:48:21;101808.41;;;18.37;79.25
58967;BME280;44744;51.894;5.080;2022-08-01T04:49:22;101807.48;;;18.37;79.26
58967;BME280;44744;51.894;5.080;2022-08-01T04:50:22;101805.52;;;18.37;79.33
58967;BME280;44744;51.894;5.080;2022-08-01T04:51:22;101809.73;;;18.38;79.26
58967;BME280;44744;51.894;5.080;2022-08-01T04:52:38;101810.40;;;18.39;79.19
58967;BME280;44744;51.894;5.080;2022-08-01T04:53:38;101811.78;;;18.40;79.25
58967;BME280;44744;51.894;5.080;2022-08-01T04:54:38;101815.17;;;18.40;79.16
58967;BME280;44744;51.894;5.080;2022-08-01T04:55:39;101817.64;;;18.40;79.02
58967;BME280;44744;51.894;5.080;2022-08-01T04:56:39;101818.55;;;18.40;79.05
58967;BME280;44744;51.894;5.080;2022-08-01T04:57:43;101817.50;;;18.40;78.97
58967;BME280;44744;51.894;5.080;2022-08-01T04:58:44;101819.23;;;18.40;78.95
58967;BME280;44744;51.894;5.080;2022-08-01T04:59:44;101819.06;;;18.40;78.98
58967;BME280;44744;51.894;5.080;2022-08-01T05:00:45;101819.19;;;18.41;78.89
58967;BME280;44744;51.894;5.080;2022-08-01T05:01:49;101818.08;;;18.41;78.90
58967;BME280;44744;51.894;5.080;2022-08-01T05:02:49;101820.06;;;18.41;78.88
58967;BME280;44744;51.894;5.080;2022-08-01T05:03:50;101819.11;;;18.42;78.82
58967;BME280;44744;51.894;5.080;2022-08-01T05:04:50;101818.57;;;18.42;78.82
58967;BME280;44744;51.894;5.080;2022-08-01T05:05:50;101814.95;;;18.42;78.72
58967;BME280;44744;51.894;5.080;2022-08-01T05:06:51;101821.77;;;18.42;78.82
58967;BME280;44744;51.894;5.080;2022-08-01T05:07:51;101823.06;;;18.42;78.69
58967;BME280;44744;51.894;5.080;2022-08-01T05:08:52;101820.75;;;18.42;78.70
58967;BME280;44744;51.894;5.080;2022-08-01T05:09:52;101825.63;;;18.41;78.67
58967;BME280;44744;51.894;5.080;2022-08-01T05:10:52;101828.04;;;18.40;78.60
58967;BME280;44744;51.894;5.080;2022-08-01T05:11:52;101829.61;;;18.38;78.66
58967;BME280;44744;51.894;5.080;2022-08-01T05:12:53;101827.94;;;18.36;78.60
58967;BME280;44744;51.894;5.080;2022-08-01T05:13:53;101824.96;;;18.36;78.56
58967;BME280;44744;51.894;5.080;2022-08-01T05:14:54;101826.67;;;18.34;78.74
58967;BME280;44744;51.894;5.080;2022-08-01T05:15:54;101826.05;;;18.33;78.84
58967;BME280;44744;51.894;5.080;2022-08-01T05:16:54;101826.59;;;18.33;78.82
58967;BME280;44744;51.894;5.080;2022-08-01T05:17:54;101822.17;;;18.32;78.86
58967;BME280;44744;51.894;5.080;2022-08-01T05:18:55;101826.94;;;18.33;78.98
58967;BME280;44744;51.894;5.080;2022-08-01T05:19:55;101826.05;;;18.33;78.90
58967;BME280;44744;51.894;5.080;2022-08-01T05:20:55;101821.56;;;18.33;78.98
58967;BME280;44744;51.894;5.080;2022-08-01T05:21:56;101825.33;;;18.33;79.00
58967;BME280;44744;51.894;5.080;2022-08-01T05:22:59;101824.49;;;18.32;79.05
58967;BME280;44744;51.894;5.080;2022-08-01T05:23:59;101826.30;;;18.32;79.14
58967;BME280;44744;51.894;5.080;2022-08-01T05:24:59;101828.64;;;18.32;79.24
58967;BME280;44744;51.894;5.080;2022-08-01T05:26:00;101828.30;;;18.31;79.36
58967;BME280;44744;51.894;5.080;2022-08-01T05:27:00;101825.84;;;18.31;79.51
58967;BME280;44744;51.894;5.080;2022-08-01T05:28:01;101829.30;;;18.30;79.47
58967;BME280;44744;51.894;5.080;2022-08-01T05:29:02;101830.50;;;18.31;79.86
58967;BME280;44744;51.894;5.080;2022-08-01T05:30:03;101827.90;;;18.30;79.84
58967;BME280;44744;51.894;5.080;2022-08-01T05:31:03;101830.30;;;18.29;79.80
58967;BME280;44744;51.894;5.080;2022-08-01T05:32:04;101828.69;;;18.29;79.93
58967;BME280;44744;51.894;5.080;2022-08-01T05:33:04;101831.80;;;18.28;79.74
58967;BME280;44744;51.894;5.080;2022-08-01T05:34:04;101830.50;;;18.29;80.06
58967;BME280;44744;51.894;5.080;2022-08-01T05:35:05;101833.83;;;18.30;80.13